sensor_id;sensor_type;location;lat;lon;timestamp;pressure;altitude;pressure_sealevel;temperature;humidity
72210;BME280;60113;48.762;12.302;2022-08-11T00:00:38;97808.75;;;10.87;46.44
72210;BME280;60113;48.762;12.302;2022-08-11T00:03:08;97797.19;;;10.90;46.31
72210;BME280;60113;48.762;12.302;2022-08-11T00:05:51;97810.97;;;10.93;53.60
72210;BME280;60113;48.762;12.302;2022-08-11T00:08:23;97810.25;;;10.91;47.12
72210;BME280;60113;48.762;12.302;2022-08-11T00:11:00;97807.94;;;10.86;46.50
72210;BME280;60113;48.762;12.302;2022-08-11T00:13:46;97800.34;;;10.82;49.38
72210;BME280;60113;48.762;12.302;2022-08-11T00:18:47;97804.97;;;10.78;48.92
72210;BME280;60113;48.762;12.302;2022-08-11T00:21:13;97815.28;;;10.81;47.02
72210;BME280;60113;48.762;12.302;2022-08-11T00:23:45;97807.28;;;10.96;51.35
72210;BME280;60113;48.762;12.302;2022-08-11T00:26:13;97801.69;;;11.13;47.60
72210;BME280;60113;48.762;12.302;2022-08-11T00:28:39;97796.38;;;11.40;46.08
72210;BME280;60113;48.762;12.302;2022-08-11T00:31:08;97797.91;;;11.68;45.78
72210;BME280;60113;48.762;12.302;2022-08-11T00:33:40;97800.19;;;11.97;45.75
72210;BME280;60113;48.762;12.302;2022-08-11T00:36:09;97798.66;;;12.19;45.69
72210;BME280;60113;48.762;12.302;2022-08-11T00:38:40;97798.13;;;12.38;49.35
72210;BME280;60113;48.762;12.302;2022-08-11T00:49:12;97792.59;;;12.89;47.19
72210;BME280;60113;48.762;12.302;2022-08-11T00:52:18;97788.28;;;12.99;49.90
72210;BME280;60113;48.762;12.302;2022-08-11T00:58:06;97790.69;;;13.14;49.07
72210;BME280;60113;48.762;12.302;2022-08-11T01:17:55;97774.69;;;13.61;47.00
72210;BME280;60113;48.762;12.302;2022-08-11T01:21:32;97775.19;;;13.67;48.05
72210;BME280;60113;48.762;12.302;2022-08-11T01:44:32;97776.91;;;13.56;46.39
72210;BME280;60113;48.762;12.302;2022-08-11T01:47:11;97775.91;;;13.57;48.13
72210;BME280;60113;48.762;12.302;2022-08-11T01:55:43;97779.63;;;13.43;47.10
72210;BME280;60113;48.762;12.302;2022-08-11T02:03:41;97771.25;;;13.27;48.02
72210;BME280;60113;48.762;12.302;2022-08-11T02:17:40;97759.34;;;12.52;48.07
72210;BME280;60113;48.762;12.302;2022-08-11T02:20:22;97766.41;;;12.40;48.60
72210;BME280;60113;48.762;12.302;2022-08-11T02:31:23;97766.38;;;12.04;49.77
72210;BME280;60113;48.762;12.302;2022-08-11T02:34:17;97757.59;;;11.92;51.35
72210;BME280;60113;48.762;12.302;2022-08-11T02:36:51;97755.41;;;11.86;54.03
72210;BME280;60113;48.762;12.302;2022-08-11T02:39:22;97757.50;;;11.81;50.67
72210;BME280;60113;48.762;12.302;2022-08-11T02:48:02;97752.25;;;11.56;54.54
72210;BME280;60113;48.762;12.302;2022-08-11T02:51:22;97755.88;;;11.42;52.26
72210;BME280;60113;48.762;12.302;2022-08-11T02:53:57;97756.53;;;11.33;49.12
72210;BME280;60113;48.762;12.302;2022-08-11T03:07:35;97759.75;;;10.99;50.87
72210;BME280;60113;48.762;12.302;2022-08-11T03:10:22;97755.03;;;10.91;49.96
72210;BME280;60113;48.762;12.302;2022-08-11T03:12:53;97763.22;;;10.86;48.63
72210;BME280;60113;48.762;12.302;2022-08-11T03:16:17;97758.41;;;10.80;57.64
72210;BME280;60113;48.762;12.302;2022-08-11T03:19:28;97762.38;;;10.73;53.96
72210;BME280;60113;48.762;12.302;2022-08-11T03:22:17;97754.94;;;10.67;65.09
72210;BME280;60113;48.762;12.302;2022-08-11T03:27:30;97749.13;;;10.48;55.37
72210;BME280;60113;48.762;12.302;2022-08-11T03:36:11;97747.19;;;10.24;52.52
72210;BME280;60113;48.762;12.302;2022-08-11T03:41:33;97747.16;;;10.11;49.28
72210;BME280;60113;48.762;12.302;2022-08-11T04:03:57;97751.28;;;9.88;66.47
72210;BME280;60113;48.762;12.302;2022-08-11T04:07:07;97741.09;;;9.83;60.24
72210;BME280;60113;48.762;12.302;2022-08-11T04:18:04;97739.72;;;9.78;49.53
72210;BME280;60113;48.762;12.302;2022-08-11T04:29:13;97753.91;;;9.88;57.73
72210;BME280;60113;48.762;12.302;2022-08-11T04:32:09;97762.53;;;9.90;57.01
72210;BME280;60113;48.762;12.302;2022-08-11T04:56:02;97769.72;;;10.01;56.14
72210;BME280;60113;48.762;12.302;2022-08-11T04:58:59;97772.03;;;10.06;55.25
72210;BME280;60113;48.762;12.302;2022-08-11T05:04:55;97777.66;;;10.27;54.31
72210;BME280;60113;48.762;12.302;2022-08-11T05:13:11;97778.66;;;11.30;52.81
72210;BME280;60113;48.762;12.302;2022-08-11T05:16:09;97782.28;;;11.78;51.46
72210;BME280;60113;48.762;12.302;2022-08-11T05:18:55;97780.28;;;12.42;51.02
72210;BME280;60113;48.762;12.302;2022-08-11T05:21:42;97772.47;;;13.11;50.51
72210;BME280;60113;48.762;12.302;2022-08-11T05:24:40;97773.81;;;13.84;53.26
72210;BME280;60113;48.762;12.302;2022-08-11T05:27:32;97766.41;;;14.53;51.84
72210;BME280;60113;48.762;12.302;2022-08-11T05:30:19;97770.13;;;15.15;50.94
72210;BME280;60113;48.762;12.302;2022-08-11T05:33:15;97768.00;;;15.69;51.61
72210;BME280;60113;48.762;12.302;2022-08-11T05:36:17;97773.63;;;15.96;54.00
72210;BME280;60113;48.762;12.302;2022-08-11T05:39:05;97769.31;;;15.95;50.85
72210;BME280;60113;48.762;12.302;2022-08-11T05:41:56;97771.03;;;16.06;52.00
72210;BME280;60113;48.762;12.302;2022-08-11T05:44:44;97760.81;;;16.41;50.05
72210;BME280;60113;48.762;12.302;2022-08-11T05:47:29;97772.00;;;16.92;49.72
72210;BME280;60113;48.762;12.302;2022-08-11T05:50:14;97760.91;;;17.45;49.96
72210;BME280;60113;48.762;12.302;2022-08-11T05:53:02;97759.13;;;17.82;51.11
72210;BME280;60113;48.762;12.302;2022-08-11T05:55:47;97758.38;;;18.08;51.69
72210;BME280;60113;48.762;12.302;2022-08-11T05:58:41;97767.88;;;18.10;52.06
72210;BME280;60113;48.762;12.302;2022-08-11T06:01:09;97761.22;;;18.24;51.57
72210;BME280;60113;48.762;12.302;2022-08-11T06:03:36;97761.34;;;18.41;51.79
72210;BME280;60113;48.762;12.302;2022-08-11T06:06:24;97764.75;;;18.78;51.04
72210;BME280;60113;48.762;12.302;2022-08-11T06:08:54;97756.19;;;19.19;50.63
72210;BME280;60113;48.762;12.302;2022-08-11T06:11:22;97755.28;;;19.45;50.26
72210;BME280;60113;48.762;12.302;2022-08-11T06:13:48;97762.38;;;19.88;50.11
72210;BME280;60113;48.762;12.302;2022-08-11T06:16:21;97766.28;;;20.27;47.22
72210;BME280;60113;48.762;12.302;2022-08-11T06:18:47;97768.94;;;20.27;49.59
72210;BME280;60113;48.762;12.302;2022-08-11T06:21:14;97760.78;;;20.37;49.45
72210;BME280;60113;48.762;12.302;2022-08-11T06:23:41;97765.13;;;20.46;49.10
72210;BME280;60113;48.762;12.302;2022-08-11T06:26:11;97759.72;;;20.71;48.47
72210;BME280;60113;48.762;12.302;2022-08-11T06:28:39;97758.44;;;20.59;47.66
72210;BME280;60113;48.762;12.302;2022-08-11T06:31:20;97760.41;;;20.73;45.09
72210;BME280;60113;48.762;12.302;2022-08-11T06:34:08;97756.91;;;20.65;45.60
72210;BME280;60113;48.762;12.302;2022-08-11T06:36:52;97758.75;;;20.64;45.45
72210;BME280;60113;48.762;12.302;2022-08-11T06:39:44;97756.88;;;20.73;44.90
72210;BME280;60113;48.762;12.302;2022-08-11T06:42:23;97753.03;;;21.01;47.48
72210;BME280;60113;48.762;12.302;2022-08-11T06:47:33;97747.81;;;21.47;44.11
72210;BME280;60113;48.762;12.302;2022-08-11T06:50:00;97749.16;;;21.83;45.42
72210;BME280;60113;48.762;12.302;2022-08-11T06:52:45;97743.50;;;22.02;44.81
72210;BME280;60113;48.762;12.302;2022-08-11T06:55:29;97743.22;;;22.20;43.25
72210;BME280;60113;48.762;12.302;2022-08-11T06:58:16;97736.19;;;22.19;42.66
72210;BME280;60113;48.762;12.302;2022-08-11T07:01:07;97744.28;;;22.34;40.36
72210;BME280;60113;48.762;12.302;2022-08-11T07:03:42;97738.88;;;22.57;42.11
72210;BME280;60113;48.762;12.302;2022-08-11T07:06:32;97744.09;;;22.89;37.76
72210;BME280;60113;48.762;12.302;2022-08-11T07:12:26;97734.63;;;23.54;37.51
72210;BME280;60113;48.762;12.302;2022-08-11T07:15:17;97737.34;;;23.76;43.45
72210;BME280;60113;48.762;12.302;2022-08-11T07:18:03;97744.25;;;24.07;41.60
72210;BME280;60113;48.762;12.302;2022-08-11T07:20:51;97744.91;;;24.09;41.20
72210;BME280;60113;48.762;12.302;2022-08-11T07:23:36;97744.72;;;24.10;41.36
72210;BME280;60113;48.762;12.302;2022-08-11T07:26:23;97744.78;;;24.17;37.75
72210;BME280;60113;48.762;12.302;2022-08-11T07:29:10;97740.50;;;24.01;35.91
72210;BME280;60113;48.762;12.302;2022-08-11T07:31:46;97735.44;;;23.91;35.56
72210;BME280;60113;48.762;12.302;2022-08-11T07:36:56;97734.03;;;24.17;40.85
72210;BME280;60113;48.762;12.302;2022-08-11T07:39:28;97729.59;;;24.25;35.67
72210;BME280;60113;48.762;12.302;2022-08-11T07:41:56;97739.34;;;24.10;39.88
72210;BME280;60113;48.762;12.302;2022-08-11T07:44:24;97732.13;;;24.33;40.47
72210;BME280;60113;48.762;12.302;2022-08-11T07:46:54;97734.81;;;24.62;40.36
72210;BME280;60113;48.762;12.302;2022-08-11T07:49:39;97738.69;;;24.88;39.37
72210;BME280;60113;48.762;12.302;2022-08-11T07:52:31;97728.94;;;25.15;38.85
72210;BME280;60113;48.762;12.302;2022-08-11T07:55:10;97719.53;;;25.40;34.52
72210;BME280;60113;48.762;12.302;2022-08-11T07:57:36;97722.09;;;25.62;38.51
72210;BME280;60113;48.762;12.302;2022-08-11T08:00:20;97723.72;;;25.56;37.81
72210;BME280;60113;48.762;12.302;2022-08-11T08:03:05;97722.88;;;25.49;38.27
72210;BME280;60113;48.762;12.302;2022-08-11T08:05:51;97705.03;;;25.34;36.02
72210;BME280;60113;48.762;12.302;2022-08-11T08:08:36;97712.28;;;25.33;33.67
72210;BME280;60113;48.762;12.302;2022-08-11T08:11:23;97717.09;;;25.58;37.78
72210;BME280;60113;48.762;12.302;2022-08-11T08:14:08;97711.84;;;25.92;37.43
72210;BME280;60113;48.762;12.302;2022-08-11T08:16:53;97715.34;;;25.93;36.43
72210;BME280;60113;48.762;12.302;2022-08-11T08:19:39;97729.88;;;25.99;35.69
72210;BME280;60113;48.762;12.302;2022-08-11T08:22:10;97728.34;;;25.76;34.37
72210;BME280;60113;48.762;12.302;2022-08-11T08:24:38;97730.63;;;25.65;30.54
72210;BME280;60113;48.762;12.302;2022-08-11T08:27:07;97721.53;;;25.73;33.57
72210;BME280;60113;48.762;12.302;2022-08-11T08:29:36;97716.56;;;25.83;32.71
72210;BME280;60113;48.762;12.302;2022-08-11T08:32:21;97727.38;;;25.97;34.00
72210;BME280;60113;48.762;12.302;2022-08-11T08:34:50;97730.28;;;26.22;32.24
72210;BME280;60113;48.762;12.302;2022-08-11T08:37:22;97715.97;;;25.95;31.59
72210;BME280;60113;48.762;12.302;2022-08-11T08:39:48;97718.47;;;25.96;33.22
72210;BME280;60113;48.762;12.302;2022-08-11T08:42:20;97725.53;;;26.04;30.04
72210;BME280;60113;48.762;12.302;2022-08-11T08:44:51;97734.44;;;26.18;28.79
72210;BME280;60113;48.762;12.302;2022-08-11T08:47:19;97718.69;;;26.08;28.12
72210;BME280;60113;48.762;12.302;2022-08-11T08:49:48;97720.53;;;26.15;30.03
72210;BME280;60113;48.762;12.302;2022-08-11T08:52:17;97730.50;;;26.28;30.38
72210;BME280;60113;48.762;12.302;2022-08-11T08:54:44;97724.09;;;26.42;32.76
72210;BME280;60113;48.762;12.302;2022-08-11T08:57:13;97735.06;;;26.61;32.71
72210;BME280;60113;48.762;12.302;2022-08-11T08:59:44;97727.59;;;26.63;32.54
72210;BME280;60113;48.762;12.302;2022-08-11T09:02:12;97724.31;;;26.48;32.49
72210;BME280;60113;48.762;12.302;2022-08-11T09:04:39;97724.25;;;26.75;32.66
72210;BME280;60113;48.762;12.302;2022-08-11T09:07:17;97715.31;;;27.01;28.85
72210;BME280;60113;48.762;12.302;2022-08-11T09:09:47;97732.09;;;27.10;30.27
72210;BME280;60113;48.762;12.302;2022-08-11T09:12:14;97720.16;;;26.58;29.14
72210;BME280;60113;48.762;12.302;2022-08-11T09:14:42;97725.75;;;26.64;27.70
72210;BME280;60113;48.762;12.302;2022-08-11T09:17:49;97719.06;;;26.80;31.55
72210;BME280;60113;48.762;12.302;2022-08-11T09:20:20;97701.22;;;26.99;29.46
72210;BME280;60113;48.762;12.302;2022-08-11T09:22:48;97719.53;;;27.36;31.93
72210;BME280;60113;48.762;12.302;2022-08-11T09:25:35;97707.63;;;27.51;31.04
72210;BME280;60113;48.762;12.302;2022-08-11T09:28:21;97708.03;;;27.54;29.77
72210;BME280;60113;48.762;12.302;2022-08-11T09:30:50;97707.41;;;27.52;30.82
72210;BME280;60113;48.762;12.302;2022-08-11T09:33:20;97699.97;;;27.48;26.86
72210;BME280;60113;48.762;12.302;2022-08-11T09:35:48;97710.53;;;27.56;30.60
72210;BME280;60113;48.762;12.302;2022-08-11T09:38:16;97704.03;;;27.64;28.99
72210;BME280;60113;48.762;12.302;2022-08-11T09:41:03;97718.59;;;27.63;29.93
72210;BME280;60113;48.762;12.302;2022-08-11T09:43:30;97714.06;;;27.56;27.66
72210;BME280;60113;48.762;12.302;2022-08-11T09:46:14;97706.66;;;27.38;25.55
72210;BME280;60113;48.762;12.302;2022-08-11T09:48:44;97701.00;;;27.53;27.14
72210;BME280;60113;48.762;12.302;2022-08-11T09:51:11;97692.72;;;27.87;29.32
72210;BME280;60113;48.762;12.302;2022-08-11T09:53:40;97706.41;;;28.18;27.63
72210;BME280;60113;48.762;12.302;2022-08-11T09:56:14;97700.78;;;28.19;25.03
72210;BME280;60113;48.762;12.302;2022-08-11T09:59:00;97706.53;;;28.55;28.79
72210;BME280;60113;48.762;12.302;2022-08-11T10:01:29;97708.25;;;28.68;28.43
72210;BME280;60113;48.762;12.302;2022-08-11T10:03:59;97696.75;;;28.73;27.39
72210;BME280;60113;48.762;12.302;2022-08-11T10:06:29;97698.72;;;28.85;28.72
72210;BME280;60113;48.762;12.302;2022-08-11T10:09:19;97686.44;;;29.07;25.86
72210;BME280;60113;48.762;12.302;2022-08-11T10:11:53;97675.50;;;29.02;24.90
72210;BME280;60113;48.762;12.302;2022-08-11T10:14:21;97674.03;;;27.46;24.47
72210;BME280;60113;48.762;12.302;2022-08-11T10:17:07;97670.25;;;27.15;25.54
72210;BME280;60113;48.762;12.302;2022-08-11T10:19:34;97672.41;;;26.93;28.95
72210;BME280;60113;48.762;12.302;2022-08-11T10:22:05;97679.97;;;27.23;28.97
72210;BME280;60113;48.762;12.302;2022-08-11T10:24:51;97674.88;;;27.86;28.16
72210;BME280;60113;48.762;12.302;2022-08-11T10:27:37;97667.38;;;28.39;26.81
72210;BME280;60113;48.762;12.302;2022-08-11T10:30:05;97673.13;;;28.50;28.16
72210;BME280;60113;48.762;12.302;2022-08-11T10:32:49;97664.56;;;28.71;27.92
72210;BME280;60113;48.762;12.302;2022-08-11T10:35:34;97670.88;;;29.03;26.21
72210;BME280;60113;48.762;12.302;2022-08-11T10:38:00;97673.00;;;29.19;27.01
72210;BME280;60113;48.762;12.302;2022-08-11T10:40:27;97647.41;;;29.34;26.05
72210;BME280;60113;48.762;12.302;2022-08-11T10:42:58;97657.53;;;29.39;25.45
72210;BME280;60113;48.762;12.302;2022-08-11T10:45:32;97653.16;;;29.56;23.62
72210;BME280;60113;48.762;12.302;2022-08-11T10:48:19;97656.69;;;29.38;25.92
72210;BME280;60113;48.762;12.302;2022-08-11T10:50:46;97642.94;;;29.40;26.43
72210;BME280;60113;48.762;12.302;2022-08-11T10:53:32;97643.13;;;29.26;26.57
72210;BME280;60113;48.762;12.302;2022-08-11T10:56:17;97653.41;;;29.36;26.41
72210;BME280;60113;48.762;12.302;2022-08-11T10:59:04;97646.75;;;29.51;26.77
72210;BME280;60113;48.762;12.302;2022-08-11T11:01:35;97645.91;;;29.81;26.94
72210;BME280;60113;48.762;12.302;2022-08-11T11:04:23;97647.94;;;30.10;22.52
72210;BME280;60113;48.762;12.302;2022-08-11T11:06:58;97645.28;;;30.22;26.54
72210;BME280;60113;48.762;12.302;2022-08-11T11:09:33;97647.88;;;30.40;24.66
72210;BME280;60113;48.762;12.302;2022-08-11T11:12:13;97647.63;;;30.18;20.92
72210;BME280;60113;48.762;12.302;2022-08-11T11:15:02;97639.72;;;30.16;21.90
72210;BME280;60113;48.762;12.302;2022-08-11T11:17:51;97640.91;;;30.20;23.58
72210;BME280;60113;48.762;12.302;2022-08-11T11:20:38;97636.41;;;30.02;21.49
72210;BME280;60113;48.762;12.302;2022-08-11T11:23:22;97637.59;;;29.52;19.89
72210;BME280;60113;48.762;12.302;2022-08-11T11:37:08;97639.94;;;29.17;22.08
72210;BME280;60113;48.762;12.302;2022-08-11T11:39:36;97631.28;;;29.27;24.84
72210;BME280;60113;48.762;12.302;2022-08-11T11:42:05;97626.22;;;29.62;22.29
72210;BME280;60113;48.762;12.302;2022-08-11T11:44:32;97619.31;;;29.90;25.42
72210;BME280;60113;48.762;12.302;2022-08-11T11:47:00;97624.41;;;30.10;25.43
72210;BME280;60113;48.762;12.302;2022-08-11T11:49:27;97627.16;;;30.34;23.73
72210;BME280;60113;48.762;12.302;2022-08-11T11:51:56;97625.56;;;30.14;22.32
72210;BME280;60113;48.762;12.302;2022-08-11T11:54:27;97628.09;;;30.28;21.83
72210;BME280;60113;48.762;12.302;2022-08-11T11:56:55;97614.16;;;30.48;25.34
72210;BME280;60113;48.762;12.302;2022-08-11T11:59:24;97619.22;;;30.56;25.10
72210;BME280;60113;48.762;12.302;2022-08-11T12:02:10;97612.72;;;30.69;25.11
72210;BME280;60113;48.762;12.302;2022-08-11T12:04:40;97605.72;;;30.74;21.01
72210;BME280;60113;48.762;12.302;2022-08-11T12:07:07;97610.09;;;30.75;25.38
72210;BME280;60113;48.762;12.302;2022-08-11T12:09:52;97607.97;;;30.89;25.49
72210;BME280;60113;48.762;12.302;2022-08-11T12:12:18;97609.75;;;30.83;24.99
72210;BME280;60113;48.762;12.302;2022-08-11T12:15:03;97599.47;;;30.73;24.00
72210;BME280;60113;48.762;12.302;2022-08-11T12:17:30;97596.31;;;30.64;23.90
72210;BME280;60113;48.762;12.302;2022-08-11T12:19:56;97597.75;;;30.67;24.77
72210;BME280;60113;48.762;12.302;2022-08-11T12:22:22;97616.28;;;30.10;24.62
72210;BME280;60113;48.762;12.302;2022-08-11T12:25:08;97602.34;;;30.06;25.30
72210;BME280;60113;48.762;12.302;2022-08-11T12:27:53;97605.63;;;29.30;25.24
72210;BME280;60113;48.762;12.302;2022-08-11T12:30:19;97606.38;;;29.06;23.87
72210;BME280;60113;48.762;12.302;2022-08-11T12:32:46;97605.56;;;28.50;24.52
72210;BME280;60113;48.762;12.302;2022-08-11T12:35:14;97610.88;;;28.56;23.59
72210;BME280;60113;48.762;12.302;2022-08-11T12:37:51;97601.19;;;28.67;22.25
72210;BME280;60113;48.762;12.302;2022-08-11T12:40:24;97584.06;;;29.23;25.52
72210;BME280;60113;48.762;12.302;2022-08-11T12:43:13;97577.47;;;29.62;22.85
72210;BME280;60113;48.762;12.302;2022-08-11T12:45:59;97589.28;;;30.03;25.14
72210;BME280;60113;48.762;12.302;2022-08-11T12:48:30;97580.00;;;30.35;22.10
72210;BME280;60113;48.762;12.302;2022-08-11T12:51:23;97585.75;;;30.51;21.43
72210;BME280;60113;48.762;12.302;2022-08-11T12:56:42;97575.88;;;30.44;21.27
72210;BME280;60113;48.762;12.302;2022-08-11T12:59:28;97576.47;;;30.23;24.71
72210;BME280;60113;48.762;12.302;2022-08-11T13:02:18;97568.09;;;30.48;22.83
72210;BME280;60113;48.762;12.302;2022-08-11T13:05:06;97574.47;;;29.94;21.90
72210;BME280;60113;48.762;12.302;2022-08-11T13:07:33;97571.03;;;29.63;22.78
72210;BME280;60113;48.762;12.302;2022-08-11T13:10:02;97565.75;;;28.94;23.80
72210;BME280;60113;48.762;12.302;2022-08-11T13:12:29;97568.31;;;29.63;24.55
72210;BME280;60113;48.762;12.302;2022-08-11T13:15:20;97561.38;;;29.67;21.52
72210;BME280;60113;48.762;12.302;2022-08-11T13:17:51;97565.53;;;29.93;24.75
72210;BME280;60113;48.762;12.302;2022-08-11T13:20:20;97562.09;;;30.10;23.60
72210;BME280;60113;48.762;12.302;2022-08-11T13:22:52;97557.03;;;30.02;24.28
72210;BME280;60113;48.762;12.302;2022-08-11T13:25:21;97551.47;;;29.61;22.45
72210;BME280;60113;48.762;12.302;2022-08-11T13:27:52;97548.97;;;28.86;23.65
72210;BME280;60113;48.762;12.302;2022-08-11T13:30:22;97549.88;;;28.98;24.83
72210;BME280;60113;48.762;12.302;2022-08-11T13:33:08;97550.94;;;29.40;25.24
72210;BME280;60113;48.762;12.302;2022-08-11T13:35:34;97539.72;;;29.67;25.06
72210;BME280;60113;48.762;12.302;2022-08-11T13:38:01;97540.56;;;29.67;23.14
72210;BME280;60113;48.762;12.302;2022-08-11T13:40:28;97534.97;;;29.50;25.19
72210;BME280;60113;48.762;12.302;2022-08-11T13:42:54;97535.41;;;29.35;24.89
72210;BME280;60113;48.762;12.302;2022-08-11T13:45:23;97530.53;;;29.13;24.53
72210;BME280;60113;48.762;12.302;2022-08-11T13:47:54;97527.25;;;28.92;25.06
72210;BME280;60113;48.762;12.302;2022-08-11T13:50:20;97529.75;;;28.94;25.28
72210;BME280;60113;48.762;12.302;2022-08-11T13:53:06;97535.31;;;29.42;25.22
72210;BME280;60113;48.762;12.302;2022-08-11T13:55:32;97536.19;;;29.66;25.16
72210;BME280;60113;48.762;12.302;2022-08-11T13:57:57;97544.22;;;29.97;24.76
72210;BME280;60113;48.762;12.302;2022-08-11T14:00:28;97529.13;;;30.01;22.80
72210;BME280;60113;48.762;12.302;2022-08-11T14:02:55;97532.44;;;29.67;21.62
72210;BME280;60113;48.762;12.302;2022-08-11T14:05:25;97527.72;;;29.87;23.52
72210;BME280;60113;48.762;12.302;2022-08-11T14:08:00;97520.78;;;30.03;24.04
72210;BME280;60113;48.762;12.302;2022-08-11T14:10:29;97515.22;;;30.10;24.22
72210;BME280;60113;48.762;12.302;2022-08-11T14:13:00;97521.25;;;29.64;22.09
72210;BME280;60113;48.762;12.302;2022-08-11T14:15:47;97511.50;;;29.20;22.62
72210;BME280;60113;48.762;12.302;2022-08-11T14:18:21;97514.59;;;29.36;22.70
72210;BME280;60113;48.762;12.302;2022-08-11T14:20:55;97521.34;;;29.02;22.79
72210;BME280;60113;48.762;12.302;2022-08-11T14:23:42;97515.56;;;28.80;24.82
72210;BME280;60113;48.762;12.302;2022-08-11T14:26:10;97516.91;;;28.21;23.62
72210;BME280;60113;48.762;12.302;2022-08-11T14:28:50;97515.59;;;28.61;25.11
72210;BME280;60113;48.762;12.302;2022-08-11T14:31:20;97516.91;;;28.89;25.36
72210;BME280;60113;48.762;12.302;2022-08-11T14:33:47;97504.59;;;29.24;24.97
72210;BME280;60113;48.762;12.302;2022-08-11T14:36:13;97505.72;;;29.59;25.01
72210;BME280;60113;48.762;12.302;2022-08-11T14:38:39;97510.16;;;28.99;24.89
72210;BME280;60113;48.762;12.302;2022-08-11T14:41:06;97507.97;;;28.89;25.05
72210;BME280;60113;48.762;12.302;2022-08-11T14:43:52;97505.25;;;28.58;24.37
72210;BME280;60113;48.762;12.302;2022-08-11T14:46:39;97509.41;;;28.61;24.52
72210;BME280;60113;48.762;12.302;2022-08-11T14:49:24;97503.47;;;28.82;24.11
72210;BME280;60113;48.762;12.302;2022-08-11T14:51:51;97506.28;;;28.76;24.28
72210;BME280;60113;48.762;12.302;2022-08-11T14:54:22;97506.41;;;28.50;24.29
72210;BME280;60113;48.762;12.302;2022-08-11T14:57:09;97507.06;;;28.45;24.43
72210;BME280;60113;48.762;12.302;2022-08-11T14:59:36;97515.06;;;28.40;24.45
72210;BME280;60113;48.762;12.302;2022-08-11T15:02:03;97508.97;;;28.45;23.76
72210;BME280;60113;48.762;12.302;2022-08-11T15:04:49;97515.28;;;28.39;24.78
72210;BME280;60113;48.762;12.302;2022-08-11T15:07:15;97505.88;;;28.60;24.56
72210;BME280;60113;48.762;12.302;2022-08-11T15:09:42;97509.63;;;28.59;24.54
72210;BME280;60113;48.762;12.302;2022-08-11T15:12:12;97495.81;;;28.49;23.21
72210;BME280;60113;48.762;12.302;2022-08-11T15:14:44;97498.31;;;28.31;24.41
72210;BME280;60113;48.762;12.302;2022-08-11T15:17:30;97496.47;;;28.25;24.54
72210;BME280;60113;48.762;12.302;2022-08-11T15:20:02;97495.00;;;28.29;24.91
72210;BME280;60113;48.762;12.302;2022-08-11T15:22:47;97501.09;;;28.74;25.15
72210;BME280;60113;48.762;12.302;2022-08-11T15:25:33;97494.31;;;29.14;24.98
72210;BME280;60113;48.762;12.302;2022-08-11T15:28:00;97489.75;;;29.15;24.16
72210;BME280;60113;48.762;12.302;2022-08-11T15:30:50;97490.66;;;29.08;22.97
72210;BME280;60113;48.762;12.302;2022-08-11T15:33:36;97484.34;;;29.15;25.03
72210;BME280;60113;48.762;12.302;2022-08-11T15:36:22;97482.56;;;29.08;25.15
72210;BME280;60113;48.762;12.302;2022-08-11T15:39:30;97479.22;;;28.64;22.66
72210;BME280;60113;48.762;12.302;2022-08-11T15:42:00;97476.44;;;28.82;24.14
72210;BME280;60113;48.762;12.302;2022-08-11T15:44:56;97476.13;;;28.91;22.40
72210;BME280;60113;48.762;12.302;2022-08-11T15:47:49;97471.97;;;29.07;23.12
72210;BME280;60113;48.762;12.302;2022-08-11T15:50:24;97470.72;;;29.33;25.23
72210;BME280;60113;48.762;12.302;2022-08-11T15:53:16;97475.78;;;29.54;22.13
72210;BME280;60113;48.762;12.302;2022-08-11T15:55:42;97476.63;;;29.90;24.97
72210;BME280;60113;48.762;12.302;2022-08-11T15:58:08;97474.50;;;30.04;24.80
72210;BME280;60113;48.762;12.302;2022-08-11T16:00:53;97466.09;;;30.30;24.91
72210;BME280;60113;48.762;12.302;2022-08-11T16:03:56;97464.94;;;30.26;22.94
72210;BME280;60113;48.762;12.302;2022-08-11T16:06:56;97467.31;;;29.98;20.49
72210;BME280;60113;48.762;12.302;2022-08-11T16:09:46;97473.13;;;29.66;21.94
72210;BME280;60113;48.762;12.302;2022-08-11T16:12:18;97462.84;;;29.56;23.37
72210;BME280;60113;48.762;12.302;2022-08-11T16:14:50;97461.44;;;29.53;24.32
72210;BME280;60113;48.762;12.302;2022-08-11T16:17:48;97469.06;;;29.44;23.13
72210;BME280;60113;48.762;12.302;2022-08-11T16:20:18;97462.00;;;29.19;22.81
72210;BME280;60113;48.762;12.302;2022-08-11T16:22:47;97464.00;;;29.24;24.04
72210;BME280;60113;48.762;12.302;2022-08-11T16:25:18;97462.59;;;29.45;24.37
72210;BME280;60113;48.762;12.302;2022-08-11T16:27:49;97459.31;;;29.31;22.78
72210;BME280;60113;48.762;12.302;2022-08-11T16:30:16;97455.28;;;29.10;24.52
72210;BME280;60113;48.762;12.302;2022-08-11T16:32:44;97456.69;;;29.13;24.26
72210;BME280;60113;48.762;12.302;2022-08-11T16:35:18;97447.53;;;29.26;22.94
72210;BME280;60113;48.762;12.302;2022-08-11T16:38:04;97444.47;;;29.34;23.38
72210;BME280;60113;48.762;12.302;2022-08-11T16:40:51;97453.06;;;29.19;23.99
72210;BME280;60113;48.762;12.302;2022-08-11T16:43:20;97457.38;;;28.96;24.33
72210;BME280;60113;48.762;12.302;2022-08-11T16:46:07;97446.34;;;28.79;23.88
72210;BME280;60113;48.762;12.302;2022-08-11T16:48:52;97449.03;;;28.98;24.26
72210;BME280;60113;48.762;12.302;2022-08-11T16:51:20;97448.41;;;28.95;24.18
72210;BME280;60113;48.762;12.302;2022-08-11T16:53:48;97447.41;;;29.08;24.17
72210;BME280;60113;48.762;12.302;2022-08-11T16:56:19;97447.75;;;28.81;23.20
72210;BME280;60113;48.762;12.302;2022-08-11T16:58:50;97455.84;;;28.69;24.18
72210;BME280;60113;48.762;12.302;2022-08-11T17:01:36;97449.88;;;28.79;23.41
72210;BME280;60113;48.762;12.302;2022-08-11T17:04:08;97452.06;;;28.70;23.51